createdAt,value
2019-04-11T00:01:58.451Z,97361.00
2019-04-11T00:04:30.285Z,97352.00
2019-04-11T00:07:01.706Z,97347.00
2019-04-11T00:09:33.002Z,97369.00
2019-04-11T00:12:06.384Z,97359.00
2019-04-11T00:14:38.099Z,97364.00
2019-04-11T00:17:10.030Z,97366.00
2019-04-11T00:19:41.653Z,97359.00
2019-04-11T00:22:13.186Z,97348.00
2019-04-11T00:24:45.199Z,97357.00
2019-04-11T00:27:17.108Z,97352.00
2019-04-11T00:29:48.901Z,97357.00
2019-04-11T00:32:21.175Z,97360.00
2019-04-11T00:34:53.323Z,97354.00
2019-04-11T00:37:27.285Z,97354.00
2019-04-11T00:39:59.658Z,97359.00
2019-04-11T00:42:31.074Z,97360.00
2019-04-11T00:45:03.459Z,97347.00
2019-04-11T00:47:35.284Z,97351.00
2019-04-11T00:50:07.804Z,97353.00
2019-04-11T00:52:39.829Z,97357.00
2019-04-11T00:55:11.277Z,97353.00
2019-04-11T00:57:43.229Z,97351.00
2019-04-11T01:00:15.169Z,97353.00
2019-04-11T01:02:47.436Z,97361.00
2019-04-11T01:05:18.745Z,97355.00
2019-04-11T01:07:51.070Z,97356.00
2019-04-11T01:10:22.493Z,97358.00
2019-04-11T01:12:54.388Z,97363.00
2019-04-11T01:15:27.173Z,97358.00
2019-04-11T01:17:58.446Z,97358.00
2019-04-11T01:20:29.928Z,97358.00
2019-04-11T01:23:01.211Z,97356.00
2019-04-11T01:25:32.795Z,97363.00
2019-04-11T01:28:04.656Z,97362.00
2019-04-11T01:30:53.854Z,97362.00
2019-04-11T01:33:25.132Z,97363.00
2019-04-11T01:35:57.446Z,97366.00
2019-04-11T01:38:30.498Z,97367.00
2019-04-11T01:41:02.465Z,97375.00
2019-04-11T01:43:34.110Z,97372.00
2019-04-11T01:46:05.716Z,97370.00
2019-04-11T01:48:45.922Z,97370.00
2019-04-11T01:51:17.904Z,97368.00
2019-04-11T01:53:49.251Z,97370.00
2019-04-11T01:56:21.097Z,97369.00
2019-04-11T01:58:53.161Z,97385.00
2019-04-11T02:01:32.642Z,97376.00
2019-04-11T02:04:19.478Z,97376.00
2019-04-11T02:06:51.061Z,97373.00
2019-04-11T02:09:22.316Z,97379.00
2019-04-11T02:11:54.081Z,97371.00
2019-04-11T02:14:25.836Z,97371.00
2019-04-11T02:16:57.142Z,97379.00
2019-04-11T02:19:28.411Z,97387.00
2019-04-11T02:22:19.089Z,97381.00
2019-04-11T02:24:59.137Z,97385.00
2019-04-11T02:27:30.853Z,97394.00
2019-04-11T02:30:03.916Z,97386.00
2019-04-11T02:32:36.989Z,97392.00
2019-04-11T02:35:08.720Z,97392.00
2019-04-11T02:37:40.352Z,97393.00
2019-04-11T02:40:13.529Z,97390.00
2019-04-11T02:42:45.646Z,97386.00
2019-04-11T02:45:30.854Z,97387.00
2019-04-11T02:47:51.737Z,97393.00
2019-04-11T02:50:25.887Z,97399.00
2019-04-11T02:52:57.359Z,97405.00
2019-04-11T02:55:31.513Z,97401.00
2019-04-11T02:58:05.611Z,97404.00
2019-04-11T03:00:37.619Z,97401.00
2019-04-11T03:03:10.263Z,97414.00
2019-04-11T03:05:43.986Z,97412.00
2019-04-11T03:08:18.880Z,97424.00
2019-04-11T03:10:49.251Z,97412.00
2019-04-11T03:13:23.178Z,97424.00
2019-04-11T03:16:10.245Z,97420.00
2019-04-11T03:18:51.041Z,97427.00
2019-04-11T03:21:06.138Z,97422.00
2019-04-11T03:23:37.238Z,97429.00
2019-04-11T03:26:11.834Z,97432.00
2019-04-11T03:28:49.030Z,97426.00
2019-04-11T03:39:14.779Z,97427.00
2019-04-11T03:41:46.484Z,97433.00
2019-04-11T03:44:14.385Z,97429.00
2019-04-11T03:46:49.354Z,97427.00
2019-04-11T03:49:22.557Z,97438.00
2019-04-11T03:51:45.392Z,97427.00
2019-04-11T03:54:17.993Z,97432.00
2019-04-11T03:56:51.154Z,97429.00
2019-04-11T03:59:23.703Z,97430.00
2019-04-11T04:01:57.490Z,97428.00
2019-04-11T04:04:29.207Z,97434.00
2019-04-11T04:07:02.454Z,97442.00
2019-04-11T04:09:35.281Z,97437.00
2019-04-11T04:12:07.183Z,97439.00
2019-04-11T04:14:54.469Z,97444.00
2019-04-11T04:17:49.733Z,97440.00
2019-04-11T04:20:51.155Z,97455.00
2019-04-11T04:23:35.858Z,97453.00
2019-04-11T04:26:11.586Z,97462.00
2019-04-11T04:28:42.763Z,97460.00
2019-04-11T04:31:14.250Z,97460.00
2019-04-11T04:33:47.478Z,97469.00
2019-04-11T04:36:18.869Z,97469.00
2019-04-11T04:38:50.736Z,97466.00
2019-04-11T04:41:35.113Z,97483.00
2019-04-11T04:43:57.556Z,97475.00
2019-04-11T04:46:42.324Z,97472.00
2019-04-11T04:49:02.619Z,97476.00
2019-04-11T04:51:35.218Z,97481.00
2019-04-11T04:54:07.986Z,97485.00
2019-04-11T04:56:41.938Z,97484.00
2019-04-11T04:59:14.643Z,97492.00
2019-04-11T05:01:48.314Z,97501.00
2019-04-11T05:04:21.002Z,97495.00
2019-04-11T05:06:54.080Z,97497.00
2019-04-11T05:09:25.773Z,97496.00
2019-04-11T05:11:56.976Z,97495.00
2019-04-11T05:14:29.419Z,97498.00
2019-04-11T05:17:02.478Z,97495.00
2019-04-11T05:19:34.089Z,97502.00
2019-04-11T05:22:06.508Z,97504.00
2019-04-11T05:24:38.908Z,97505.00
2019-04-11T05:27:11.032Z,97502.00
2019-04-11T05:29:43.915Z,97501.00
2019-04-11T05:32:15.481Z,97511.00
2019-04-11T05:34:46.767Z,97514.00
2019-04-11T05:37:18.629Z,97515.00
2019-04-11T05:39:50.430Z,97518.00
2019-04-11T05:42:25.240Z,97513.00
2019-04-11T05:44:55.100Z,97513.00
2019-04-11T05:47:27.546Z,97526.00
2019-04-11T05:50:09.251Z,97533.00
2019-04-11T05:52:39.990Z,97525.00
2019-04-11T05:55:13.675Z,97525.00
2019-04-11T05:57:46.894Z,97531.00
2019-04-11T06:00:27.048Z,97530.00
2019-04-11T06:03:01.749Z,97537.00
2019-04-11T06:05:52.134Z,97542.00
2019-04-11T06:08:27.145Z,97533.00
2019-04-11T06:11:24.085Z,97532.00
2019-04-11T06:14:19.877Z,97541.00
2019-04-11T06:16:55.722Z,97535.00
2019-04-11T06:19:45.875Z,97537.00
2019-04-11T06:22:19.725Z,97541.00
2019-04-11T06:25:23.499Z,97541.00
2019-04-11T06:27:59.956Z,97544.00
2019-04-11T06:30:48.813Z,97537.00
2019-04-11T06:33:26.705Z,97545.00
2019-04-11T06:36:23.275Z,97547.00
2019-04-11T06:39:13.887Z,97538.00
2019-04-11T06:42:05.945Z,97534.00
2019-04-11T06:45:02.160Z,97540.00
2019-04-11T06:47:45.088Z,97542.00
2019-04-11T06:50:22.989Z,97551.00
2019-04-11T06:52:54.339Z,97559.00
2019-04-11T06:55:44.720Z,97547.00
2019-04-11T06:58:27.656Z,97561.00
2019-04-11T07:01:04.077Z,97572.00
2019-04-11T07:03:40.605Z,97570.00
2019-04-11T07:06:19.612Z,97563.00
2019-04-11T07:09:16.727Z,97563.00
2019-04-11T07:11:54.197Z,97564.00
2019-04-11T07:14:33.863Z,97562.00
2019-04-11T07:17:23.026Z,97570.00
2019-04-11T07:20:13.223Z,97559.00
2019-04-11T07:23:22.500Z,97565.00
2019-04-11T07:26:00.928Z,97562.00
2019-04-11T07:28:52.296Z,97571.00
2019-04-11T07:31:57.823Z,97565.00
2019-04-11T07:34:47.979Z,97566.00
2019-04-11T07:37:38.953Z,97575.00
2019-04-11T07:40:36.795Z,97575.00
2019-04-11T07:43:13.456Z,97579.00
2019-04-11T07:46:02.717Z,97583.00
2019-04-11T07:48:40.366Z,97592.00
2019-04-11T07:51:34.346Z,97590.00
2019-04-11T07:54:09.328Z,97591.00
2019-04-11T07:56:46.323Z,97592.00
2019-04-11T07:59:42.666Z,97594.00
2019-04-11T08:02:45.607Z,97592.00
2019-04-11T08:05:34.701Z,97592.00
2019-04-11T08:08:41.214Z,97607.00
2019-04-11T08:11:27.476Z,97606.00
2019-04-11T08:14:24.540Z,97603.00
2019-04-11T08:17:27.049Z,97607.00
2019-04-11T08:20:04.993Z,97610.00
2019-04-11T08:22:48.110Z,97607.00
2019-04-11T08:25:37.617Z,97604.00
2019-04-11T08:28:12.715Z,97609.00
2019-04-11T08:31:05.540Z,97612.00
2019-04-11T08:33:38.415Z,97612.00
2019-04-11T08:36:32.336Z,97618.00
2019-04-11T08:39:09.003Z,97608.00
2019-04-11T08:41:57.008Z,97617.00
2019-04-11T08:44:40.350Z,97623.00
2019-04-11T08:47:16.653Z,97624.00
2019-04-11T08:49:52.156Z,97617.00
2019-04-11T08:52:42.531Z,97623.00
2019-04-11T08:55:21.071Z,97625.00
2019-04-11T08:57:58.097Z,97607.00
2019-04-11T09:00:46.868Z,97616.00
2019-04-11T09:04:09.992Z,97615.00
2019-04-11T09:06:40.959Z,97613.00
2019-04-11T09:09:31.523Z,97620.00
2019-04-11T09:12:06.452Z,97609.00
2019-04-11T09:14:56.762Z,97621.00
2019-04-11T09:17:34.693Z,97614.00
2019-04-11T09:20:21.540Z,97604.00
2019-04-11T09:22:57.459Z,97610.00
2019-04-11T09:25:51.323Z,97619.00
2019-04-11T09:28:27.204Z,97620.00
2019-04-11T09:31:21.280Z,97619.00
2019-04-11T09:34:03.743Z,97616.00
2019-04-11T09:37:00.971Z,97608.00
2019-04-11T09:39:51.237Z,97617.00
2019-04-11T09:42:47.139Z,97608.00
2019-04-11T09:45:37.522Z,97611.00
2019-04-11T09:48:44.393Z,97614.00
2019-04-11T09:51:50.014Z,97619.00
2019-04-11T09:54:30.366Z,97629.00
2019-04-11T09:57:34.522Z,97626.00
2019-04-11T10:00:28.689Z,97636.00
2019-04-11T10:03:19.715Z,97628.00
2019-04-11T10:06:16.533Z,97628.00
2019-04-11T10:08:55.443Z,97619.00
2019-04-11T10:11:56.833Z,97628.00
2019-04-11T10:14:31.524Z,97622.00
2019-04-11T10:17:24.249Z,97623.00
2019-04-11T10:19:56.985Z,97628.00
2019-04-11T10:22:46.044Z,97634.00
2019-04-11T10:25:35.192Z,97623.00
2019-04-11T10:28:29.476Z,97638.00
2019-04-11T10:31:06.373Z,97631.00
2019-04-11T10:34:04.653Z,97634.00
2019-04-11T10:36:47.406Z,97634.00
2019-04-11T10:39:37.513Z,97606.00
2019-04-11T10:42:12.697Z,97635.00
2019-04-11T10:45:10.089Z,97637.00
2019-04-11T10:47:41.411Z,97645.00
2019-04-11T10:50:38.093Z,97640.00
2019-04-11T10:53:10.978Z,97639.00
2019-04-11T10:56:10.688Z,97649.00
2019-04-11T10:58:53.173Z,97644.00
2019-04-11T11:01:56.109Z,97644.00
2019-04-11T11:04:40.988Z,97639.00
2019-04-11T11:07:40.560Z,97640.00
2019-04-11T11:10:15.429Z,97646.00
2019-04-11T11:13:09.698Z,97643.00
2019-04-11T11:15:44.529Z,97641.00
2019-04-11T11:19:14.963Z,97645.00
2019-04-11T11:21:29.749Z,97648.00
2019-04-11T11:24:33.738Z,97646.00
2019-04-11T11:27:07.377Z,97639.00
2019-04-11T11:29:58.215Z,97643.00
2019-04-11T11:32:33.604Z,97657.00
2019-04-11T11:35:17.031Z,97667.00
2019-04-11T11:37:53.350Z,97659.00
2019-04-11T11:40:43.205Z,97660.00
2019-04-11T11:43:27.491Z,97666.00
2019-04-11T11:46:17.834Z,97660.00
2019-04-11T11:48:54.302Z,97659.00
2019-04-11T11:51:35.244Z,97664.00
2019-04-11T11:54:29.508Z,97661.00
2019-04-11T11:57:04.618Z,97672.00
2019-04-11T11:59:40.734Z,97665.00
2019-04-11T12:02:18.244Z,97665.00
2019-04-11T12:05:00.348Z,97655.00
2019-04-11T12:07:37.883Z,97646.00
2019-04-11T12:10:39.466Z,97652.00
2019-04-11T12:13:24.845Z,97651.00
2019-04-11T12:16:19.044Z,97654.00
2019-04-11T12:19:15.954Z,97644.00
2019-04-11T12:21:48.568Z,97643.00
2019-04-11T12:24:38.663Z,97656.00
2019-04-11T12:27:28.891Z,97655.00
2019-04-11T12:30:30.529Z,97666.00
2019-04-11T12:33:08.949Z,97655.00
2019-04-11T12:35:49.027Z,97648.00
2019-04-11T12:38:36.176Z,97654.00
2019-04-11T12:41:20.443Z,97659.00
2019-04-11T12:44:30.216Z,97647.00
2019-04-11T12:47:20.708Z,97648.00
2019-04-11T12:50:29.804Z,97649.00
2019-04-11T12:53:18.618Z,97657.00
2019-04-11T12:56:07.856Z,97641.00
2019-04-11T12:59:04.358Z,97645.00
2019-04-11T13:01:56.029Z,97646.00
2019-04-11T13:04:33.039Z,97652.00
2019-04-11T13:07:23.991Z,97650.00
2019-04-11T13:10:01.304Z,97642.00
2019-04-11T13:12:58.191Z,97647.00
2019-04-11T13:15:45.014Z,97650.00
2019-04-11T13:18:33.975Z,97645.00
2019-04-11T13:21:17.485Z,97653.00
2019-04-11T13:24:10.865Z,97653.00
2019-04-11T13:27:12.266Z,97659.00
2019-04-11T13:30:02.539Z,97649.00
2019-04-11T13:32:45.445Z,97651.00
2019-04-11T13:35:43.687Z,97641.00
2019-04-11T13:38:27.843Z,97643.00
2019-04-11T13:41:15.951Z,97654.00
2019-04-11T13:44:10.130Z,97656.00
2019-04-11T13:46:59.587Z,97646.00
2019-04-11T13:49:45.355Z,97646.00
2019-04-11T13:52:36.918Z,97650.00
2019-04-11T13:55:27.543Z,97652.00
2019-04-11T13:58:16.941Z,97654.00
2019-04-11T14:01:02.761Z,97643.00
2019-04-11T14:03:59.135Z,97646.00
2019-04-11T14:06:34.556Z,97645.00
2019-04-11T14:09:30.773Z,97645.00
2019-04-11T14:12:08.769Z,97646.00
2019-04-11T14:14:51.865Z,97653.00
2019-04-11T14:17:41.558Z,97644.00
2019-04-11T14:20:41.811Z,97639.00
2019-04-11T14:23:30.652Z,97642.00
2019-04-11T14:26:12.215Z,97647.00
2019-04-11T14:28:56.410Z,97641.00
2019-04-11T14:31:47.944Z,97640.00
2019-04-11T14:34:38.198Z,97633.00
2019-04-11T14:37:38.338Z,97636.00
2019-04-11T14:40:27.802Z,97642.00
2019-04-11T14:43:18.883Z,97640.00
2019-04-11T14:46:09.531Z,97651.00
2019-04-11T14:48:43.320Z,97655.00
2019-04-11T14:51:32.516Z,97654.00
2019-04-11T14:54:08.146Z,97653.00
2019-04-11T14:56:47.678Z,97657.00
2019-04-11T14:59:25.000Z,97655.00
2019-04-11T15:02:10.505Z,97646.00
2019-04-11T15:05:07.678Z,97643.00
2019-04-11T15:07:39.595Z,97645.00
2019-04-11T15:10:48.183Z,97648.00
2019-04-11T15:13:23.720Z,97650.00
2019-04-11T15:16:23.147Z,97655.00
2019-04-11T15:19:00.816Z,97655.00
2019-04-11T15:21:50.043Z,97663.00
2019-04-11T15:24:21.818Z,97656.00
2019-04-11T15:27:06.579Z,97662.00
2019-04-11T15:29:39.133Z,97663.00
2019-04-11T15:32:32.565Z,97660.00
2019-04-11T15:35:06.914Z,97655.00
2019-04-11T15:38:00.338Z,97673.00
2019-04-11T15:40:34.801Z,97656.00
2019-04-11T15:43:43.368Z,97655.00
2019-04-11T15:46:32.633Z,97668.00
2019-04-11T15:49:31.291Z,97674.00
2019-04-11T15:52:08.043Z,97680.00
2019-04-11T15:54:58.863Z,97674.00
2019-04-11T15:57:42.662Z,97663.00
2019-04-11T16:00:31.696Z,97668.00
2019-04-11T16:03:24.513Z,97671.00
2019-04-11T16:06:14.602Z,97677.00
2019-04-11T16:08:48.387Z,97666.00
2019-04-11T16:11:44.592Z,97674.00
2019-04-11T16:14:20.541Z,97680.00
2019-04-11T16:17:14.036Z,97684.00
2019-04-11T16:19:48.570Z,97679.00
2019-04-11T16:22:38.887Z,97679.00
2019-04-11T16:25:12.219Z,97673.00
2019-04-11T16:28:06.566Z,97675.00
2019-04-11T16:30:41.731Z,97674.00
2019-04-11T16:33:39.653Z,97682.00
2019-04-11T16:36:36.284Z,97660.00
2019-04-11T16:39:27.779Z,97680.00
2019-04-11T16:42:04.193Z,97680.00
2019-04-11T16:44:55.216Z,97685.00
2019-04-11T16:47:44.213Z,97688.00
2019-04-11T16:50:15.457Z,97688.00
2019-04-11T16:52:46.788Z,97681.00
2019-04-11T16:55:18.488Z,97683.00
2019-04-11T16:57:49.761Z,97685.00
2019-04-11T17:00:21.393Z,97697.00
2019-04-11T17:02:54.743Z,97693.00
2019-04-11T17:05:26.815Z,97710.00
2019-04-11T17:08:17.186Z,97691.00
2019-04-11T17:11:18.858Z,97698.00
2019-04-11T17:13:50.449Z,97706.00
2019-04-11T17:16:22.685Z,97713.00
2019-04-11T17:18:53.784Z,97713.00
2019-04-11T17:21:25.012Z,97712.00
2019-04-11T17:23:56.597Z,97718.00
2019-04-11T17:26:27.798Z,97707.00
2019-04-11T17:28:59.197Z,97718.00
2019-04-11T17:31:31.122Z,97711.00
2019-04-11T17:34:02.784Z,97704.00
2019-04-11T17:36:35.712Z,97709.00
2019-04-11T17:39:07.939Z,97717.00
2019-04-11T17:41:41.783Z,97715.00
2019-04-11T17:44:12.336Z,97737.00
2019-04-11T17:46:44.257Z,97719.00
2019-04-11T17:49:15.429Z,97728.00
2019-04-11T17:51:55.627Z,97726.00
2019-04-11T17:54:19.901Z,97731.00
2019-04-11T17:56:54.532Z,97734.00
2019-04-11T17:59:28.079Z,97742.00
2019-04-11T18:01:58.422Z,97748.00
2019-04-11T18:04:29.588Z,97755.00
2019-04-11T18:07:00.999Z,97750.00
2019-04-11T18:09:32.257Z,97758.00
2019-04-11T18:12:04.733Z,97766.00
2019-04-11T18:14:35.899Z,97765.00
2019-04-11T18:17:07.119Z,97760.00
2019-04-11T18:19:39.727Z,97775.00
2019-04-11T18:22:13.334Z,97767.00
2019-04-11T18:24:44.980Z,97773.00
2019-04-11T18:27:17.450Z,97784.00
2019-04-11T18:29:52.627Z,97789.00
2019-04-11T18:32:21.901Z,97778.00
2019-04-11T18:34:53.003Z,97779.00
2019-04-11T18:37:24.659Z,97784.00
2019-04-11T18:39:56.620Z,97786.00
2019-04-11T18:42:28.142Z,97794.00
2019-04-11T18:44:59.619Z,97800.00
2019-04-11T18:47:31.616Z,97813.00
2019-04-11T18:50:02.975Z,97806.00
2019-04-11T18:52:34.167Z,97809.00
2019-04-11T18:55:06.970Z,97803.00
2019-04-11T18:57:38.239Z,97807.00
2019-04-11T19:00:14.296Z,97806.00
2019-04-11T19:02:45.869Z,97804.00
2019-04-11T19:05:28.151Z,97807.00
2019-04-11T19:07:51.174Z,97802.00
2019-04-11T19:10:22.444Z,97795.00
2019-04-11T19:12:53.677Z,97805.00
2019-04-11T19:15:25.317Z,97811.00
2019-04-11T19:18:06.295Z,97805.00
2019-04-11T19:20:29.748Z,97807.00
2019-04-11T19:23:01.495Z,97803.00
2019-04-11T19:25:33.373Z,97814.00
2019-04-11T19:28:04.549Z,97810.00
2019-04-11T19:30:35.964Z,97801.00
2019-04-11T19:33:07.418Z,97794.00
2019-04-11T19:35:41.343Z,97805.00
2019-04-11T19:38:24.787Z,97803.00
2019-04-11T19:40:56.597Z,97809.00
2019-04-11T19:43:27.911Z,97809.00
2019-04-11T19:45:59.570Z,97809.00
2019-04-11T19:48:31.835Z,97803.00
2019-04-11T19:51:03.234Z,97819.00
2019-04-11T19:53:34.456Z,97807.00
2019-04-11T19:56:13.738Z,97803.00
2019-04-11T19:58:45.120Z,97809.00
2019-04-11T20:01:16.606Z,97797.00
2019-04-11T20:03:48.364Z,97797.00
2019-04-11T20:06:19.639Z,97798.00
2019-04-11T20:08:50.873Z,97821.00
2019-04-11T20:11:22.531Z,97815.00
2019-04-11T20:13:54.484Z,97806.00
2019-04-11T20:16:25.753Z,97795.00
2019-04-11T20:18:58.050Z,97803.00
2019-04-11T20:21:29.966Z,97799.00
2019-04-11T20:24:01.219Z,97798.00
2019-04-11T20:26:32.593Z,97796.00
2019-04-11T20:29:03.893Z,97795.00
2019-04-11T20:31:35.386Z,97798.00
2019-04-11T20:34:07.475Z,97786.00
2019-04-11T20:36:41.250Z,97792.00
2019-04-11T20:39:15.033Z,97803.00
2019-04-11T20:41:45.292Z,97808.00
2019-04-11T20:44:16.771Z,97793.00
2019-04-11T20:46:47.935Z,97798.00
2019-04-11T20:49:19.721Z,97802.00
2019-04-11T20:51:50.905Z,97800.00
2019-04-11T20:54:22.426Z,97800.00
2019-04-11T20:56:54.198Z,97801.00
2019-04-11T20:59:34.361Z,97800.00
2019-04-11T21:01:58.509Z,97800.00
2019-04-11T21:04:31.341Z,97812.00
2019-04-11T21:07:02.883Z,97801.00
2019-04-11T21:09:34.005Z,97794.00
2019-04-11T21:12:07.594Z,97798.00
2019-04-11T21:14:38.549Z,97817.00
2019-04-11T21:17:09.747Z,97805.00
2019-04-11T21:19:40.841Z,97798.00
2019-04-11T21:22:12.012Z,97796.00
2019-04-11T21:24:43.374Z,97803.00
2019-04-11T21:27:15.036Z,97817.00
2019-04-11T21:29:46.239Z,97807.00
2019-04-11T21:32:17.893Z,97807.00
2019-04-11T21:34:49.083Z,97810.00
2019-04-11T21:37:20.349Z,97810.00
2019-04-11T21:39:51.890Z,97818.00
2019-04-11T21:42:23.278Z,97811.00
2019-04-11T21:44:55.049Z,97806.00
2019-04-11T21:47:26.865Z,97813.00
2019-04-11T21:49:58.935Z,97818.00
2019-04-11T21:52:32.254Z,97808.00
2019-04-11T21:55:03.687Z,97807.00
2019-04-11T21:57:34.918Z,97808.00
2019-04-11T22:00:15.785Z,97805.00
2019-04-11T22:02:48.687Z,97801.00
2019-04-11T22:05:20.172Z,97802.00
2019-04-11T22:07:51.699Z,97790.00
2019-04-11T22:10:22.976Z,97797.00
2019-04-11T22:12:54.368Z,97799.00
2019-04-11T22:15:25.527Z,97795.00
2019-04-11T22:17:58.093Z,97800.00
2019-04-11T22:20:29.327Z,97803.00
2019-04-11T22:23:01.324Z,97793.00
2019-04-11T22:25:33.610Z,97787.00
2019-04-11T22:28:05.964Z,97798.00
2019-04-11T22:30:37.596Z,97789.00
2019-04-11T22:33:17.135Z,97792.00
2019-04-11T22:35:48.417Z,97788.00
2019-04-11T22:38:19.616Z,97787.00
2019-04-11T22:40:52.028Z,97793.00
2019-04-11T22:43:24.756Z,97797.00
2019-04-11T22:45:57.263Z,97794.00
2019-04-11T22:48:28.431Z,97795.00
2019-04-11T22:50:59.934Z,97795.00
2019-04-11T22:53:31.803Z,97794.00
2019-04-11T22:56:03.268Z,97797.00
2019-04-11T22:58:34.792Z,97789.00
2019-04-11T23:01:06.889Z,97785.00
2019-04-11T23:03:42.630Z,97790.00
2019-04-11T23:06:14.900Z,97785.00
2019-04-11T23:08:48.960Z,97784.00
2019-04-11T23:11:20.644Z,97792.00
2019-04-11T23:13:51.902Z,97786.00
2019-04-11T23:16:23.312Z,97785.00
2019-04-11T23:18:54.913Z,97783.00
2019-04-11T23:21:26.306Z,97796.00
2019-04-11T23:23:57.625Z,97791.00
2019-04-11T23:26:28.813Z,97791.00
2019-04-11T23:29:00.427Z,97785.00
2019-04-11T23:31:31.822Z,97787.00
2019-04-11T23:34:03.304Z,97780.00
2019-04-11T23:36:34.508Z,97789.00
2019-04-11T23:39:07.520Z,97795.00
2019-04-11T23:41:38.874Z,97796.00
2019-04-11T23:44:10.868Z,97799.00
2019-04-11T23:46:42.832Z,97790.00
2019-04-11T23:49:14.915Z,97802.00
2019-04-11T23:51:46.104Z,97799.00
2019-04-11T23:54:22.869Z,97809.00
2019-04-11T23:56:51.065Z,97792.00
2019-04-11T23:59:22.709Z,97793.00
